DAL178 KATL-DGAA
Flight info
| Callsign | DAL178 |
|---|---|
| Flight time | N/A |
| Altitude | 37000 |
| Route | PHIIL3 HRTWL Q64 TYI DCT CVI DCT ORF AR9 ZIBUT/M080F370 DCT KINER DCT 35N060W 29N050W 23N040W DCT VEPOP/N0464F370 DCT LUMPO UR976 ANITI UR979 ERMIT DCT TUSEK UL433 ACC |
| Aircraft | A339/H-SADE1E2E3GHIJ3J5M1P2RWXY/LB2D1 |
Departure
| Time | N/A |
|---|---|
| Airport | Hartsfield Jackson Atlanta International Airport (KATL) |
Arrival
| Time | 2026-05-03 23:04 |
|---|---|
| Airport | Kotoka International Airport (DGAA) |
| Time | Latitude | Longitude | Altitude | Speed | Heading |
|---|---|---|---|---|---|
| 2026-05-03 20:15 | 14.97363 | -18.08206 | 36883 ft | 516 kts | 113° |
| 2026-05-03 20:15 | 14.94777 | -18.01272 | 36877 ft | 515 kts | 113° |
| 2026-05-03 20:16 | 14.92172 | -17.94358 | 36875 ft | 516 kts | 114° |
| 2026-05-03 20:16 | 14.89548 | -17.87425 | 36869 ft | 515 kts | 114° |
| 2026-05-03 20:17 | 14.86943 | -17.80534 | 36860 ft | 515 kts | 113° |
| 2026-05-03 20:17 | 14.84334 | -17.73623 | 36866 ft | 515 kts | 114° |
| 2026-05-03 20:18 | 14.81731 | -17.66731 | 36871 ft | 516 kts | 113° |
| 2026-05-03 20:18 | 14.79134 | -17.59847 | 36874 ft | 516 kts | 113° |
| 2026-05-03 20:19 | 14.76495 | -17.52902 | 36875 ft | 515 kts | 114° |
| 2026-05-03 20:19 | 14.73417 | -17.46287 | 36879 ft | 513 kts | 122° |
| 2026-05-03 20:20 | 14.69609 | -17.40040 | 36885 ft | 510 kts | 127° |
| 2026-05-03 20:20 | 14.65615 | -17.33979 | 36878 ft | 509 kts | 127° |
| 2026-05-03 20:21 | 14.61634 | -17.27931 | 36882 ft | 509 kts | 127° |
| 2026-05-03 20:21 | 14.57651 | -17.21855 | 36887 ft | 510 kts | 127° |
| 2026-05-03 20:22 | 14.53675 | -17.15785 | 36884 ft | 510 kts | 127° |
| 2026-05-03 20:22 | 14.49684 | -17.09695 | 36888 ft | 509 kts | 127° |
| 2026-05-03 20:23 | 14.45723 | -17.03653 | 36887 ft | 509 kts | 127° |
| 2026-05-03 20:23 | 14.41736 | -16.97576 | 36887 ft | 510 kts | 127° |
| 2026-05-03 20:24 | 14.37755 | -16.91513 | 36890 ft | 510 kts | 127° |
| 2026-05-03 20:24 | 14.33774 | -16.85458 | 36889 ft | 510 kts | 127° |
| 2026-05-03 20:25 | 14.29799 | -16.79414 | 36888 ft | 509 kts | 127° |
| 2026-05-03 20:25 | 14.25793 | -16.73328 | 36884 ft | 510 kts | 127° |
| 2026-05-03 20:26 | 14.21821 | -16.67295 | 36878 ft | 509 kts | 127° |
| 2026-05-03 20:26 | 14.17834 | -16.61244 | 36875 ft | 510 kts | 127° |
| 2026-05-03 20:27 | 14.13826 | -16.55170 | 36879 ft | 510 kts | 127° |
| 2026-05-03 20:27 | 14.09837 | -16.49125 | 36877 ft | 510 kts | 127° |
| 2026-05-03 20:28 | 14.05839 | -16.43073 | 36879 ft | 510 kts | 127° |
| 2026-05-03 20:28 | 14.01828 | -16.37007 | 36879 ft | 510 kts | 127° |
| 2026-05-03 20:29 | 13.97833 | -16.30966 | 36879 ft | 509 kts | 127° |
| 2026-05-03 20:29 | 13.93832 | -16.24923 | 36883 ft | 510 kts | 127° |
| 2026-05-03 20:30 | 13.89841 | -16.18898 | 36881 ft | 510 kts | 127° |
| 2026-05-03 20:30 | 13.85829 | -16.12845 | 36885 ft | 509 kts | 127° |
| 2026-05-03 20:31 | 13.81808 | -16.06783 | 36882 ft | 510 kts | 127° |
| 2026-05-03 20:31 | 13.77811 | -16.00764 | 36885 ft | 510 kts | 127° |
| 2026-05-03 20:32 | 13.73799 | -15.94724 | 36881 ft | 510 kts | 127° |
| 2026-05-03 20:32 | 13.69793 | -15.88697 | 36884 ft | 509 kts | 127° |
| 2026-05-03 20:33 | 13.65775 | -15.82658 | 36877 ft | 510 kts | 127° |
| 2026-05-03 20:33 | 13.61789 | -15.76667 | 36874 ft | 509 kts | 127° |
| 2026-05-03 20:34 | 13.57766 | -15.70626 | 36875 ft | 509 kts | 127° |
| 2026-05-03 20:34 | 13.53764 | -15.64625 | 36875 ft | 508 kts | 127° |
| 2026-05-03 20:35 | 13.49749 | -15.58603 | 36876 ft | 509 kts | 127° |
| 2026-05-03 20:35 | 13.45751 | -15.52615 | 36879 ft | 508 kts | 127° |
| 2026-05-03 20:36 | 13.41742 | -15.46613 | 36872 ft | 508 kts | 127° |
| 2026-05-03 20:36 | 13.37733 | -15.40612 | 36870 ft | 507 kts | 127° |
| 2026-05-03 20:37 | 13.33746 | -15.34649 | 36877 ft | 507 kts | 128° |
| 2026-05-03 20:37 | 13.29744 | -15.28665 | 36873 ft | 506 kts | 128° |
| 2026-05-03 20:38 | 13.25743 | -15.22685 | 36880 ft | 507 kts | 127° |
| 2026-05-03 20:38 | 13.21744 | -15.16704 | 36885 ft | 507 kts | 127° |
| 2026-05-03 20:39 | 13.17749 | -15.10753 | 36876 ft | 506 kts | 127° |
| 2026-05-03 20:39 | 13.13726 | -15.04787 | 36868 ft | 505 kts | 128° |
| 2026-05-03 20:40 | 13.09734 | -14.98861 | 36864 ft | 506 kts | 127° |
| 2026-05-03 20:40 | 13.05739 | -14.92920 | 36861 ft | 506 kts | 128° |
| 2026-05-03 20:41 | 13.01713 | -14.86936 | 36862 ft | 506 kts | 128° |
| 2026-05-03 20:41 | 12.97704 | -14.80980 | 36869 ft | 506 kts | 128° |
| 2026-05-03 20:42 | 12.93709 | -14.75047 | 36870 ft | 505 kts | 128° |
| 2026-05-03 20:42 | 12.89720 | -14.69127 | 36867 ft | 505 kts | 128° |
| 2026-05-03 20:43 | 12.85715 | -14.63185 | 36866 ft | 504 kts | 128° |
| 2026-05-03 20:43 | 12.81741 | -14.57292 | 36864 ft | 503 kts | 127° |
| 2026-05-03 20:44 | 12.77741 | -14.51353 | 36863 ft | 502 kts | 128° |
| 2026-05-03 20:44 | 12.73770 | -14.45476 | 36866 ft | 502 kts | 128° |
| 2026-05-03 20:45 | 12.69791 | -14.39621 | 36868 ft | 501 kts | 128° |
| 2026-05-03 20:45 | 12.65776 | -14.33707 | 36862 ft | 501 kts | 128° |
| 2026-05-03 20:46 | 12.61804 | -14.27847 | 36869 ft | 501 kts | 128° |
| 2026-05-03 20:46 | 12.57837 | -14.21992 | 36866 ft | 501 kts | 128° |
| 2026-05-03 20:47 | 12.53838 | -14.16089 | 36870 ft | 500 kts | 128° |
| 2026-05-03 20:47 | 12.49885 | -14.10262 | 36870 ft | 500 kts | 128° |
| 2026-05-03 20:48 | 12.45902 | -14.04392 | 36873 ft | 500 kts | 128° |
| 2026-05-03 20:48 | 12.41918 | -13.98524 | 36878 ft | 500 kts | 128° |
| 2026-05-03 20:49 | 12.37964 | -13.92699 | 36882 ft | 499 kts | 128° |
| 2026-05-03 20:49 | 12.33997 | -13.86861 | 36882 ft | 499 kts | 128° |
| 2026-05-03 20:50 | 12.30046 | -13.81042 | 36881 ft | 498 kts | 128° |
| 2026-05-03 20:50 | 12.26016 | -13.75266 | 36884 ft | 497 kts | 131° |
| 2026-05-03 20:51 | 12.21664 | -13.69747 | 36886 ft | 496 kts | 132° |
| 2026-05-03 20:51 | 12.17313 | -13.64266 | 36889 ft | 496 kts | 133° |
| 2026-05-03 20:52 | 12.12978 | -13.58797 | 36896 ft | 495 kts | 132° |
| 2026-05-03 20:52 | 12.08636 | -13.53314 | 36900 ft | 495 kts | 132° |
| 2026-05-03 20:53 | 12.04306 | -13.47844 | 36908 ft | 494 kts | 132° |
| 2026-05-03 20:53 | 11.99951 | -13.42345 | 36911 ft | 494 kts | 132° |
| 2026-05-03 20:54 | 11.95638 | -13.36899 | 36910 ft | 493 kts | 132° |
| 2026-05-03 20:54 | 11.89143 | -13.28702 | 36911 ft | 492 kts | 133° |
| 2026-05-03 20:55 | 11.84833 | -13.23263 | 36918 ft | 491 kts | 132° |
| 2026-05-03 20:55 | 11.80524 | -13.17826 | 36910 ft | 490 kts | 133° |
| 2026-05-03 20:56 | 11.76401 | -13.12275 | 36924 ft | 491 kts | 128° |
| 2026-05-03 20:56 | 11.72502 | -13.06550 | 36930 ft | 491 kts | 128° |
| 2026-05-03 20:57 | 11.68607 | -13.00809 | 36919 ft | 490 kts | 128° |
| 2026-05-03 20:57 | 11.64731 | -12.95094 | 36963 ft | 489 kts | 128° |
| 2026-05-03 20:58 | 11.60863 | -12.89402 | 36964 ft | 488 kts | 128° |
| 2026-05-03 20:58 | 11.56996 | -12.83715 | 36982 ft | 486 kts | 128° |
| 2026-05-03 20:59 | 11.53118 | -12.78014 | 36995 ft | 487 kts | 129° |
| 2026-05-03 20:59 | 11.49248 | -12.72328 | 36978 ft | 486 kts | 128° |
| 2026-05-03 21:00 | 11.46034 | -12.67609 | 37005 ft | 486 kts | 128° |
| 2026-05-03 21:00 | 11.41520 | -12.60980 | 37031 ft | 487 kts | 128° |
| 2026-05-03 21:01 | 11.37627 | -12.55271 | 37056 ft | 488 kts | 128° |
| 2026-05-03 21:01 | 11.33781 | -12.49624 | 37070 ft | 488 kts | 129° |
| 2026-05-03 21:02 | 11.29893 | -12.43919 | 37082 ft | 488 kts | 129° |
| 2026-05-03 21:02 | 11.26007 | -12.38222 | 37091 ft | 490 kts | 129° |
| 2026-05-03 21:03 | 11.22052 | -12.32567 | 37097 ft | 489 kts | 130° |
| 2026-05-03 21:03 | 11.18004 | -12.26928 | 37101 ft | 490 kts | 131° |
| 2026-05-03 21:04 | 11.13981 | -12.21310 | 37089 ft | 490 kts | 130° |
| 2026-05-03 21:04 | 11.09981 | -12.15708 | 37080 ft | 491 kts | 130° |
| 2026-05-03 21:05 | 11.05932 | -12.10029 | 37070 ft | 492 kts | 130° |
| 2026-05-03 21:05 | 11.01904 | -12.04385 | 37077 ft | 493 kts | 130° |
| 2026-05-03 21:06 | 10.97848 | -11.98706 | 37064 ft | 495 kts | 130° |
| 2026-05-03 21:06 | 10.93784 | -11.93016 | 37072 ft | 495 kts | 130° |
| 2026-05-03 21:07 | 10.89746 | -11.87363 | 37069 ft | 493 kts | 130° |
| 2026-05-03 21:07 | 10.85685 | -11.81680 | 37065 ft | 493 kts | 130° |
| 2026-05-03 21:08 | 10.81649 | -11.76033 | 37063 ft | 491 kts | 130° |
| 2026-05-03 21:08 | 10.77632 | -11.70411 | 37055 ft | 491 kts | 130° |
| 2026-05-03 21:09 | 10.73614 | -11.64793 | 37058 ft | 490 kts | 130° |
| 2026-05-03 21:09 | 10.69629 | -11.59216 | 37057 ft | 487 kts | 129° |
| 2026-05-03 21:10 | 10.65607 | -11.53630 | 37066 ft | 486 kts | 131° |
| 2026-05-03 21:10 | 10.61454 | -11.48164 | 37075 ft | 486 kts | 131° |
| 2026-05-03 21:11 | 10.57320 | -11.42745 | 37061 ft | 485 kts | 131° |
| 2026-05-03 21:11 | 10.53192 | -11.37301 | 37067 ft | 484 kts | 131° |
| 2026-05-03 21:12 | 10.49066 | -11.31855 | 37069 ft | 485 kts | 131° |
| 2026-05-03 21:12 | 10.44971 | -11.26444 | 37063 ft | 483 kts | 131° |
| 2026-05-03 21:13 | 10.40852 | -11.21009 | 37073 ft | 483 kts | 130° |
| 2026-05-03 21:13 | 10.36738 | -11.15575 | 37067 ft | 482 kts | 130° |
| 2026-05-03 21:14 | 10.32652 | -11.10177 | 37063 ft | 482 kts | 130° |
| 2026-05-03 21:14 | 10.28577 | -11.04794 | 37048 ft | 482 kts | 130° |
| 2026-05-03 21:15 | 10.24550 | -10.99287 | 37032 ft | 483 kts | 126° |
| 2026-05-03 21:15 | 10.20970 | -10.93514 | 37033 ft | 484 kts | 124° |
| 2026-05-03 21:16 | 10.17437 | -10.87652 | 37025 ft | 483 kts | 124° |
| 2026-05-03 21:16 | 10.13931 | -10.81845 | 37028 ft | 484 kts | 124° |
| 2026-05-03 21:17 | 10.10985 | -10.76981 | 37021 ft | 484 kts | 124° |
| 2026-05-03 21:17 | 10.06600 | -10.70336 | 37029 ft | 483 kts | 128° |
| 2026-05-03 21:18 | 10.02655 | -10.64809 | 37024 ft | 483 kts | 128° |
| 2026-05-03 21:18 | 9.98698 | -10.59258 | 37021 ft | 484 kts | 128° |
| 2026-05-03 21:19 | 9.94761 | -10.53726 | 37011 ft | 483 kts | 128° |
| 2026-05-03 21:19 | 9.90824 | -10.48191 | 37004 ft | 483 kts | 128° |
| 2026-05-03 21:20 | 9.86866 | -10.42625 | 37001 ft | 483 kts | 128° |
| 2026-05-03 21:20 | 9.82937 | -10.37111 | 37001 ft | 484 kts | 128° |
| 2026-05-03 21:21 | 9.78972 | -10.31536 | 36998 ft | 485 kts | 128° |
| 2026-05-03 21:21 | 9.75003 | -10.25962 | 36997 ft | 484 kts | 128° |
| 2026-05-03 21:22 | 9.71064 | -10.20432 | 37003 ft | 485 kts | 128° |
| 2026-05-03 21:22 | 9.67097 | -10.14863 | 36991 ft | 487 kts | 128° |
| 2026-05-03 21:23 | 9.63118 | -10.09270 | 36982 ft | 486 kts | 128° |
| 2026-05-03 21:23 | 9.59134 | -10.03699 | 36988 ft | 487 kts | 128° |
| 2026-05-03 21:24 | 9.55127 | -9.98142 | 36987 ft | 487 kts | 128° |
| 2026-05-03 21:24 | 9.51187 | -9.92663 | 36991 ft | 488 kts | 128° |
| 2026-05-03 21:25 | 9.47175 | -9.87076 | 36998 ft | 489 kts | 128° |
| 2026-05-03 21:25 | 9.43175 | -9.81505 | 36997 ft | 489 kts | 128° |
| 2026-05-03 21:26 | 9.39185 | -9.75950 | 37002 ft | 489 kts | 128° |
| 2026-05-03 21:26 | 9.35156 | -9.70343 | 37007 ft | 490 kts | 128° |
| 2026-05-03 21:27 | 9.31134 | -9.64747 | 37020 ft | 489 kts | 128° |
| 2026-05-03 21:27 | 9.27135 | -9.59187 | 37040 ft | 490 kts | 128° |
| 2026-05-03 21:28 | 9.23110 | -9.53590 | 37061 ft | 489 kts | 128° |
| 2026-05-03 21:28 | 9.19108 | -9.48026 | 37073 ft | 489 kts | 128° |
| 2026-05-03 21:29 | 9.15101 | -9.42456 | 37072 ft | 490 kts | 128° |
| 2026-05-03 21:29 | 9.11090 | -9.36878 | 37069 ft | 488 kts | 128° |
| 2026-05-03 21:30 | 9.07063 | -9.31281 | 37065 ft | 487 kts | 128° |
| 2026-05-03 21:30 | 9.03117 | -9.25735 | 37062 ft | 486 kts | 127° |
| 2026-05-03 21:31 | 8.99249 | -9.20058 | 37060 ft | 487 kts | 127° |
| 2026-05-03 21:31 | 8.95405 | -9.14400 | 37052 ft | 487 kts | 126° |
| 2026-05-03 21:32 | 8.91577 | -9.08778 | 37047 ft | 486 kts | 126° |
| 2026-05-03 21:32 | 8.87705 | -9.03096 | 37040 ft | 486 kts | 126° |
| 2026-05-03 21:33 | 8.83852 | -8.97447 | 37040 ft | 487 kts | 127° |
| 2026-05-03 21:33 | 8.80008 | -8.91812 | 37042 ft | 487 kts | 126° |
| 2026-05-03 21:34 | 8.76147 | -8.86155 | 37046 ft | 488 kts | 127° |
| 2026-05-03 21:34 | 8.72270 | -8.80481 | 37045 ft | 488 kts | 126° |
| 2026-05-03 21:35 | 8.68404 | -8.74824 | 37047 ft | 490 kts | 126° |
| 2026-05-03 21:35 | 8.64530 | -8.69156 | 37055 ft | 491 kts | 126° |
| 2026-05-03 21:36 | 8.60644 | -8.63468 | 37061 ft | 491 kts | 126° |
| 2026-05-03 21:36 | 8.56768 | -8.57800 | 37059 ft | 490 kts | 126° |
| 2026-05-03 21:37 | 8.52858 | -8.52083 | 37057 ft | 491 kts | 126° |
| 2026-05-03 21:37 | 8.48970 | -8.46398 | 37047 ft | 491 kts | 126° |
| 2026-05-03 21:38 | 8.45083 | -8.40711 | 37040 ft | 491 kts | 126° |
| 2026-05-03 21:38 | 8.41221 | -8.35064 | 37030 ft | 491 kts | 126° |
| 2026-05-03 21:39 | 8.37485 | -8.29211 | 37023 ft | 492 kts | 121° |
| 2026-05-03 21:39 | 8.34435 | -8.23043 | 37017 ft | 494 kts | 114° |
| 2026-05-03 21:40 | 8.31833 | -8.16619 | 37021 ft | 494 kts | 113° |
| 2026-05-03 21:40 | 8.29256 | -8.10167 | 37018 ft | 494 kts | 113° |
| 2026-05-03 21:41 | 8.26674 | -8.03728 | 37019 ft | 492 kts | 113° |
| 2026-05-03 21:41 | 8.24094 | -7.97317 | 37020 ft | 491 kts | 113° |
| 2026-05-03 21:42 | 8.21520 | -7.90930 | 37017 ft | 491 kts | 113° |
| 2026-05-03 21:42 | 8.18942 | -7.84536 | 37014 ft | 492 kts | 113° |
| 2026-05-03 21:43 | 8.16365 | -7.78151 | 37013 ft | 493 kts | 113° |
| 2026-05-03 21:43 | 8.13755 | -7.71687 | 37013 ft | 494 kts | 113° |
| 2026-05-03 21:44 | 8.11164 | -7.65271 | 37013 ft | 495 kts | 113° |
| 2026-05-03 21:44 | 8.08564 | -7.58838 | 37007 ft | 494 kts | 113° |
| 2026-05-03 21:45 | 8.05967 | -7.52411 | 37000 ft | 494 kts | 113° |
| 2026-05-03 21:45 | 8.03362 | -7.45975 | 36998 ft | 494 kts | 113° |
| 2026-05-03 21:46 | 8.00766 | -7.39563 | 36990 ft | 494 kts | 113° |
| 2026-05-03 21:46 | 7.98153 | -7.33109 | 36985 ft | 495 kts | 113° |
| 2026-05-03 21:47 | 7.95542 | -7.26661 | 36994 ft | 496 kts | 113° |
| 2026-05-03 21:47 | 7.92927 | -7.20217 | 36993 ft | 496 kts | 113° |
| 2026-05-03 21:48 | 7.90320 | -7.13784 | 36993 ft | 496 kts | 113° |
| 2026-05-03 21:48 | 7.87684 | -7.07292 | 36990 ft | 496 kts | 113° |
| 2026-05-03 21:49 | 7.85054 | -7.00813 | 36986 ft | 497 kts | 113° |
| 2026-05-03 21:49 | 7.82442 | -6.94381 | 36987 ft | 497 kts | 113° |
| 2026-05-03 21:50 | 7.79824 | -6.87941 | 36986 ft | 496 kts | 112° |
| 2026-05-03 21:50 | 7.77188 | -6.81456 | 36990 ft | 496 kts | 112° |
| 2026-05-03 21:51 | 7.74580 | -6.75042 | 36988 ft | 497 kts | 112° |
| 2026-05-03 21:51 | 7.71943 | -6.68569 | 36983 ft | 497 kts | 112° |
| 2026-05-03 21:52 | 7.69314 | -6.62109 | 36982 ft | 497 kts | 112° |
| 2026-05-03 21:52 | 7.66688 | -6.55665 | 36982 ft | 496 kts | 112° |
| 2026-05-03 21:53 | 7.64061 | -6.49217 | 36986 ft | 497 kts | 112° |
| 2026-05-03 21:53 | 7.61447 | -6.42808 | 36987 ft | 495 kts | 112° |
| 2026-05-03 21:54 | 7.58816 | -6.36358 | 36983 ft | 496 kts | 112° |
| 2026-05-03 21:54 | 7.56185 | -6.29914 | 36975 ft | 496 kts | 112° |
| 2026-05-03 21:55 | 7.53556 | -6.23480 | 36977 ft | 496 kts | 112° |
| 2026-05-03 21:55 | 7.50929 | -6.17047 | 36972 ft | 494 kts | 112° |
| 2026-05-03 21:56 | 7.48302 | -6.10622 | 36971 ft | 495 kts | 112° |
| 2026-05-03 21:56 | 7.45681 | -6.04211 | 36969 ft | 495 kts | 112° |
| 2026-05-03 21:57 | 7.43052 | -5.97785 | 36974 ft | 494 kts | 111° |
| 2026-05-03 21:57 | 7.40419 | -5.91351 | 36978 ft | 494 kts | 111° |
| 2026-05-03 21:58 | 7.37813 | -5.84990 | 36971 ft | 493 kts | 111° |
| 2026-05-03 21:58 | 7.35191 | -5.78591 | 36967 ft | 492 kts | 111° |
| 2026-05-03 21:59 | 7.32579 | -5.72215 | 36970 ft | 491 kts | 111° |
| 2026-05-03 21:59 | 7.29971 | -5.65858 | 36967 ft | 491 kts | 111° |
| 2026-05-03 22:00 | 7.27355 | -5.59478 | 36971 ft | 490 kts | 111° |
| 2026-05-03 22:00 | 7.24748 | -5.53130 | 36964 ft | 489 kts | 111° |
| 2026-05-03 22:01 | 7.22147 | -5.46799 | 36955 ft | 488 kts | 111° |
| 2026-05-03 22:01 | 7.19556 | -5.40492 | 36949 ft | 487 kts | 111° |
| 2026-05-03 22:02 | 7.16958 | -5.34168 | 36949 ft | 487 kts | 111° |
| 2026-05-03 22:02 | 7.14374 | -5.27882 | 36949 ft | 486 kts | 111° |
| 2026-05-03 22:03 | 7.11791 | -5.21603 | 36948 ft | 485 kts | 111° |
| 2026-05-03 22:03 | 7.09207 | -5.15325 | 36949 ft | 485 kts | 111° |
| 2026-05-03 22:04 | 7.06619 | -5.09041 | 36950 ft | 484 kts | 111° |
| 2026-05-03 22:04 | 7.04049 | -5.02804 | 36951 ft | 483 kts | 111° |
| 2026-05-03 22:05 | 7.01474 | -4.96551 | 36949 ft | 481 kts | 111° |
| 2026-05-03 22:05 | 6.98892 | -4.90291 | 36948 ft | 482 kts | 111° |
| 2026-05-03 22:06 | 6.96318 | -4.84051 | 36945 ft | 482 kts | 111° |
| 2026-05-03 22:06 | 6.93753 | -4.77830 | 36945 ft | 482 kts | 111° |
| 2026-05-03 22:07 | 6.91180 | -4.71598 | 36943 ft | 482 kts | 111° |
| 2026-05-03 22:07 | 6.88591 | -4.65331 | 36938 ft | 482 kts | 111° |
| 2026-05-03 22:08 | 6.86006 | -4.59070 | 36942 ft | 482 kts | 111° |
| 2026-05-03 22:08 | 6.83445 | -4.52875 | 36941 ft | 482 kts | 111° |
| 2026-05-03 22:09 | 6.80867 | -4.46643 | 36943 ft | 482 kts | 111° |
| 2026-05-03 22:10 | 6.76987 | -4.37263 | 36946 ft | 482 kts | 111° |
| 2026-05-03 22:10 | 6.74394 | -4.30998 | 36867 ft | 483 kts | 111° |
| 2026-05-03 22:10 | 6.73106 | -4.27887 | 36569 ft | 481 kts | 111° |
| 2026-05-03 22:11 | 6.71827 | -4.24799 | 36277 ft | 478 kts | 111° |
| 2026-05-03 22:11 | 6.70558 | -4.21734 | 35985 ft | 474 kts | 111° |
| 2026-05-03 22:11 | 6.69276 | -4.18641 | 35689 ft | 472 kts | 111° |
| 2026-05-03 22:11 | 6.68019 | -4.15607 | 35399 ft | 471 kts | 111° |
| 2026-05-03 22:12 | 6.66762 | -4.12576 | 35110 ft | 471 kts | 111° |
| 2026-05-03 22:12 | 6.65502 | -4.09538 | 34820 ft | 472 kts | 111° |
| 2026-05-03 22:12 | 6.64236 | -4.06484 | 34531 ft | 473 kts | 111° |
| 2026-05-03 22:12 | 6.62973 | -4.03439 | 34243 ft | 474 kts | 111° |
| 2026-05-03 22:13 | 6.61693 | -4.00352 | 33953 ft | 474 kts | 111° |
| 2026-05-03 22:13 | 6.60428 | -3.97302 | 33670 ft | 474 kts | 111° |
| 2026-05-03 22:13 | 6.59154 | -3.94229 | 33384 ft | 475 kts | 111° |
| 2026-05-03 22:13 | 6.57877 | -3.91155 | 33101 ft | 475 kts | 111° |
| 2026-05-03 22:14 | 6.56602 | -3.88082 | 32815 ft | 476 kts | 111° |
| 2026-05-03 22:14 | 6.55335 | -3.85028 | 32536 ft | 477 kts | 111° |
| 2026-05-03 22:14 | 6.54057 | -3.81948 | 32280 ft | 478 kts | 111° |
| 2026-05-03 22:14 | 6.52776 | -3.78861 | 32027 ft | 478 kts | 111° |
| 2026-05-03 22:15 | 6.51502 | -3.75791 | 31773 ft | 478 kts | 111° |
| 2026-05-03 22:15 | 6.50223 | -3.72711 | 31518 ft | 478 kts | 111° |
| 2026-05-03 22:15 | 6.48937 | -3.69617 | 31263 ft | 478 kts | 112° |
| 2026-05-03 22:15 | 6.47660 | -3.66543 | 31007 ft | 478 kts | 112° |
| 2026-05-03 22:16 | 6.46370 | -3.63439 | 30751 ft | 478 kts | 112° |
| 2026-05-03 22:16 | 6.45092 | -3.60366 | 30496 ft | 479 kts | 112° |
| 2026-05-03 22:16 | 6.43812 | -3.57286 | 30245 ft | 478 kts | 112° |
| 2026-05-03 22:16 | 6.42520 | -3.54179 | 29989 ft | 477 kts | 112° |
| 2026-05-03 22:17 | 6.41240 | -3.51097 | 29740 ft | 476 kts | 112° |
| 2026-05-03 22:17 | 6.39962 | -3.48027 | 29486 ft | 476 kts | 112° |
| 2026-05-03 22:17 | 6.38693 | -3.44977 | 29237 ft | 476 kts | 113° |
| 2026-05-03 22:17 | 6.37418 | -3.41912 | 28985 ft | 476 kts | 113° |
| 2026-05-03 22:18 | 6.36132 | -3.38821 | 28731 ft | 476 kts | 113° |
| 2026-05-03 22:18 | 6.34860 | -3.35764 | 28483 ft | 476 kts | 113° |
| 2026-05-03 22:18 | 6.33587 | -3.32702 | 28145 ft | 472 kts | 113° |
| 2026-05-03 22:18 | 6.32309 | -3.29630 | 27472 ft | 473 kts | 113° |
| 2026-05-03 22:19 | 6.31045 | -3.26586 | 26782 ft | 472 kts | 113° |
| 2026-05-03 22:19 | 6.29799 | -3.23590 | 26353 ft | 465 kts | 113° |
| 2026-05-03 22:19 | 6.28545 | -3.20580 | 25869 ft | 460 kts | 112° |
| 2026-05-03 22:19 | 6.27361 | -3.17636 | 25346 ft | 456 kts | 111° |
| 2026-05-03 22:20 | 6.26260 | -3.14643 | 24825 ft | 452 kts | 110° |
| 2026-05-03 22:20 | 6.25195 | -3.11717 | 24334 ft | 448 kts | 110° |
| 2026-05-03 22:20 | 6.24134 | -3.08788 | 23840 ft | 443 kts | 110° |
| 2026-05-03 22:20 | 6.23078 | -3.05868 | 23350 ft | 439 kts | 110° |
| 2026-05-03 22:21 | 6.22051 | -3.03026 | 22865 ft | 435 kts | 110° |
| 2026-05-03 22:21 | 6.21024 | -3.00187 | 22377 ft | 431 kts | 110° |
| 2026-05-03 22:21 | 6.20000 | -2.97355 | 21914 ft | 426 kts | 109° |
| 2026-05-03 22:21 | 6.18996 | -2.94582 | 21451 ft | 422 kts | 109° |
| 2026-05-03 22:22 | 6.17998 | -2.91825 | 21115 ft | 414 kts | 109° |
| 2026-05-03 22:22 | 6.17021 | -2.89124 | 20559 ft | 413 kts | 109° |
| 2026-05-03 22:22 | 6.16043 | -2.86419 | 20053 ft | 410 kts | 109° |
| 2026-05-03 22:22 | 6.15063 | -2.83713 | 19607 ft | 405 kts | 108° |
| 2026-05-03 22:23 | 6.14115 | -2.81095 | 19162 ft | 401 kts | 108° |
| 2026-05-03 22:23 | 6.13161 | -2.78457 | 18689 ft | 397 kts | 108° |
| 2026-05-03 22:23 | 6.12221 | -2.75859 | 18238 ft | 393 kts | 108° |
| 2026-05-03 22:23 | 6.11292 | -2.73292 | 17807 ft | 388 kts | 108° |
| 2026-05-03 22:24 | 6.10371 | -2.70752 | 17352 ft | 385 kts | 107° |
| 2026-05-03 22:24 | 6.09462 | -2.68238 | 16891 ft | 381 kts | 107° |
| 2026-05-03 22:24 | 6.08564 | -2.65753 | 16418 ft | 378 kts | 107° |
| 2026-05-03 22:24 | 6.07663 | -2.63261 | 16051 ft | 373 kts | 108° |
| 2026-05-03 22:25 | 6.06780 | -2.60821 | 15959 ft | 375 kts | 107° |
| 2026-05-03 22:25 | 6.05890 | -2.58363 | 15957 ft | 376 kts | 108° |
| 2026-05-03 22:25 | 6.04987 | -2.55867 | 15955 ft | 377 kts | 108° |
| 2026-05-03 22:25 | 6.04089 | -2.53388 | 15952 ft | 377 kts | 108° |
| 2026-05-03 22:26 | 6.03192 | -2.50915 | 15951 ft | 377 kts | 107° |
| 2026-05-03 22:26 | 6.02283 | -2.48409 | 15949 ft | 377 kts | 108° |
| 2026-05-03 22:26 | 6.01383 | -2.45923 | 15947 ft | 378 kts | 108° |
| 2026-05-03 22:26 | 6.00486 | -2.43454 | 15948 ft | 377 kts | 107° |
| 2026-05-03 22:27 | 5.99584 | -2.40967 | 15949 ft | 377 kts | 108° |
| 2026-05-03 22:27 | 5.98684 | -2.38486 | 15949 ft | 377 kts | 107° |
| 2026-05-03 22:27 | 5.97785 | -2.36011 | 15949 ft | 377 kts | 108° |
| 2026-05-03 22:27 | 5.96874 | -2.33500 | 15951 ft | 377 kts | 108° |
| 2026-05-03 22:28 | 5.95985 | -2.31053 | 15948 ft | 377 kts | 108° |
| 2026-05-03 22:28 | 5.95085 | -2.28575 | 15952 ft | 377 kts | 108° |
| 2026-05-03 22:28 | 5.94179 | -2.26078 | 15953 ft | 377 kts | 108° |
| 2026-05-03 22:28 | 5.93281 | -2.23609 | 15956 ft | 377 kts | 108° |
| 2026-05-03 22:29 | 5.92381 | -2.21129 | 15958 ft | 378 kts | 108° |
| 2026-05-03 22:29 | 5.91470 | -2.18621 | 15962 ft | 378 kts | 108° |
| 2026-05-03 22:29 | 5.90569 | -2.16142 | 15967 ft | 378 kts | 108° |
| 2026-05-03 22:29 | 5.89658 | -2.13636 | 15967 ft | 378 kts | 108° |
| 2026-05-03 22:30 | 5.88761 | -2.11167 | 15819 ft | 377 kts | 108° |
| 2026-05-03 22:30 | 5.87860 | -2.08687 | 15584 ft | 375 kts | 108° |
| 2026-05-03 22:30 | 5.86970 | -2.06241 | 15353 ft | 374 kts | 108° |
| 2026-05-03 22:30 | 5.86071 | -2.03769 | 15120 ft | 372 kts | 108° |
| 2026-05-03 22:31 | 5.85183 | -2.01327 | 14888 ft | 371 kts | 108° |
| 2026-05-03 22:31 | 5.84292 | -1.98877 | 14652 ft | 369 kts | 108° |
| 2026-05-03 22:31 | 5.83417 | -1.96473 | 14420 ft | 368 kts | 108° |
| 2026-05-03 22:31 | 5.82535 | -1.94049 | 14185 ft | 367 kts | 108° |
| 2026-05-03 22:32 | 5.81658 | -1.91638 | 13951 ft | 366 kts | 108° |
| 2026-05-03 22:32 | 5.80785 | -1.89237 | 13717 ft | 366 kts | 108° |
| 2026-05-03 22:32 | 5.79910 | -1.86833 | 13483 ft | 365 kts | 108° |
| 2026-05-03 22:32 | 5.79038 | -1.84435 | 13247 ft | 364 kts | 108° |
| 2026-05-03 22:33 | 5.78173 | -1.82059 | 13012 ft | 362 kts | 108° |
| 2026-05-03 22:33 | 5.77299 | -1.79661 | 12773 ft | 361 kts | 108° |
| 2026-05-03 22:33 | 5.76447 | -1.77319 | 12535 ft | 359 kts | 108° |
| 2026-05-03 22:33 | 5.75588 | -1.74960 | 12296 ft | 358 kts | 108° |
| 2026-05-03 22:34 | 5.74729 | -1.72604 | 12057 ft | 356 kts | 108° |
| 2026-05-03 22:34 | 5.73883 | -1.70282 | 11821 ft | 354 kts | 108° |
| 2026-05-03 22:34 | 5.73034 | -1.67951 | 11581 ft | 353 kts | 108° |
| 2026-05-03 22:34 | 5.72186 | -1.65626 | 11345 ft | 351 kts | 108° |
| 2026-05-03 22:35 | 5.71345 | -1.63319 | 11105 ft | 350 kts | 108° |
| 2026-05-03 22:35 | 5.70517 | -1.61046 | 10870 ft | 348 kts | 108° |
| 2026-05-03 22:35 | 5.69677 | -1.58738 | 10639 ft | 345 kts | 108° |
| 2026-05-03 22:35 | 5.68865 | -1.56513 | 10324 ft | 338 kts | 108° |
| 2026-05-03 22:36 | 5.68061 | -1.54309 | 10011 ft | 332 kts | 108° |
| 2026-05-03 22:36 | 5.67270 | -1.52141 | 9791 ft | 323 kts | 108° |
| 2026-05-03 22:36 | 5.66510 | -1.50058 | 9670 ft | 311 kts | 108° |
| 2026-05-03 22:36 | 5.65779 | -1.48055 | 9505 ft | 303 kts | 107° |
| 2026-05-03 22:37 | 5.65068 | -1.46104 | 9357 ft | 294 kts | 107° |
| 2026-05-03 22:37 | 5.64373 | -1.44196 | 9235 ft | 285 kts | 107° |
| 2026-05-03 22:37 | 5.63697 | -1.42338 | 9047 ft | 278 kts | 107° |
| 2026-05-03 22:37 | 5.63041 | -1.40535 | 8865 ft | 273 kts | 107° |
| 2026-05-03 22:38 | 5.62393 | -1.38753 | 8712 ft | 266 kts | 107° |
| 2026-05-03 22:38 | 5.61762 | -1.37021 | 8593 ft | 261 kts | 107° |
| 2026-05-03 22:38 | 5.61133 | -1.35294 | 8476 ft | 262 kts | 108° |
| 2026-05-03 22:38 | 5.60506 | -1.33570 | 8358 ft | 263 kts | 108° |
| 2026-05-03 22:39 | 5.59876 | -1.31841 | 8238 ft | 264 kts | 108° |
| 2026-05-03 22:39 | 5.59241 | -1.30098 | 8117 ft | 264 kts | 108° |
| 2026-05-03 22:39 | 5.58606 | -1.28357 | 8016 ft | 263 kts | 108° |
| 2026-05-03 22:39 | 5.57976 | -1.26630 | 8014 ft | 264 kts | 108° |
| 2026-05-03 22:40 | 5.57340 | -1.24886 | 8011 ft | 264 kts | 108° |
| 2026-05-03 22:40 | 5.56708 | -1.23158 | 8008 ft | 264 kts | 108° |
| 2026-05-03 22:40 | 5.56074 | -1.21424 | 8005 ft | 264 kts | 108° |
| 2026-05-03 22:40 | 5.55439 | -1.19686 | 8005 ft | 264 kts | 108° |
| 2026-05-03 22:41 | 5.54881 | -1.17929 | 8000 ft | 263 kts | 103° |
| 2026-05-03 22:41 | 5.54492 | -1.16135 | 7995 ft | 262 kts | 98° |
| 2026-05-03 22:41 | 5.54275 | -1.14307 | 7996 ft | 262 kts | 93° |
| 2026-05-03 22:41 | 5.54233 | -1.12482 | 7996 ft | 261 kts | 88° |
| 2026-05-03 22:42 | 5.54359 | -1.10672 | 7993 ft | 261 kts | 84° |
| 2026-05-03 22:42 | 5.54552 | -1.08849 | 7990 ft | 262 kts | 84° |
| 2026-05-03 22:42 | 5.54750 | -1.07026 | 7990 ft | 262 kts | 84° |
| 2026-05-03 22:42 | 5.54949 | -1.05205 | 7990 ft | 262 kts | 84° |
| 2026-05-03 22:43 | 5.55148 | -1.03363 | 7990 ft | 262 kts | 84° |
| 2026-05-03 22:43 | 5.55344 | -1.01552 | 7990 ft | 262 kts | 84° |
| 2026-05-03 22:43 | 5.55542 | -0.99717 | 7986 ft | 262 kts | 84° |
| 2026-05-03 22:43 | 5.55740 | -0.97882 | 7984 ft | 262 kts | 84° |
| 2026-05-03 22:44 | 5.55936 | -0.96057 | 7983 ft | 263 kts | 84° |
| 2026-05-03 22:44 | 5.56132 | -0.94236 | 7981 ft | 263 kts | 84° |
| 2026-05-03 22:44 | 5.56331 | -0.92394 | 7982 ft | 263 kts | 84° |
| 2026-05-03 22:44 | 5.56528 | -0.90567 | 7980 ft | 262 kts | 84° |
| 2026-05-03 22:45 | 5.56722 | -0.88763 | 7980 ft | 260 kts | 84° |
| 2026-05-03 22:45 | 5.56914 | -0.86976 | 7977 ft | 249 kts | 84° |
| 2026-05-03 22:45 | 5.57095 | -0.85294 | 7976 ft | 237 kts | 84° |
| 2026-05-03 22:45 | 5.57268 | -0.83685 | 7974 ft | 227 kts | 84° |
| 2026-05-03 22:46 | 5.57436 | -0.82130 | 7973 ft | 216 kts | 84° |
| 2026-05-03 22:46 | 5.57596 | -0.80638 | 7979 ft | 217 kts | 84° |
| 2026-05-03 22:46 | 5.57760 | -0.79123 | 7982 ft | 218 kts | 84° |
| 2026-05-03 22:46 | 5.57924 | -0.77595 | 7981 ft | 219 kts | 84° |
| 2026-05-03 22:47 | 5.58089 | -0.76065 | 7982 ft | 219 kts | 84° |
| 2026-05-03 22:47 | 5.58252 | -0.74546 | 7985 ft | 219 kts | 84° |
| 2026-05-03 22:47 | 5.58416 | -0.73025 | 7984 ft | 219 kts | 84° |
| 2026-05-03 22:47 | 5.58579 | -0.71501 | 7982 ft | 219 kts | 84° |
| 2026-05-03 22:48 | 5.58742 | -0.69980 | 7980 ft | 219 kts | 84° |
| 2026-05-03 22:48 | 5.59057 | -0.68492 | 7979 ft | 219 kts | 71° |
| 2026-05-03 22:48 | 5.59655 | -0.67059 | 7983 ft | 220 kts | 68° |
| 2026-05-03 22:48 | 5.60277 | -0.65664 | 7984 ft | 219 kts | 68° |
| 2026-05-03 22:49 | 5.60898 | -0.64251 | 7883 ft | 219 kts | 68° |
| 2026-05-03 22:49 | 5.61500 | -0.62853 | 7763 ft | 219 kts | 69° |
| 2026-05-03 22:49 | 5.62101 | -0.61435 | 7644 ft | 219 kts | 69° |
| 2026-05-03 22:49 | 5.62692 | -0.60028 | 7524 ft | 219 kts | 69° |
| 2026-05-03 22:50 | 5.63283 | -0.58613 | 7404 ft | 219 kts | 69° |
| 2026-05-03 22:50 | 5.63873 | -0.57193 | 7285 ft | 220 kts | 69° |
| 2026-05-03 22:50 | 5.64464 | -0.55766 | 7162 ft | 220 kts | 69° |
| 2026-05-03 22:50 | 5.65054 | -0.54342 | 7038 ft | 220 kts | 69° |
| 2026-05-03 22:51 | 5.65634 | -0.52941 | 6920 ft | 220 kts | 69° |
| 2026-05-03 22:51 | 5.66227 | -0.51506 | 6799 ft | 220 kts | 69° |
| 2026-05-03 22:51 | 5.66812 | -0.50088 | 6681 ft | 220 kts | 69° |
| 2026-05-03 22:51 | 5.67398 | -0.48669 | 6560 ft | 219 kts | 69° |
| 2026-05-03 22:52 | 5.67986 | -0.47246 | 6437 ft | 219 kts | 69° |
| 2026-05-03 22:52 | 5.68566 | -0.45839 | 6319 ft | 220 kts | 69° |
| 2026-05-03 22:52 | 5.69160 | -0.44399 | 6197 ft | 220 kts | 69° |
| 2026-05-03 22:52 | 5.69746 | -0.42981 | 6079 ft | 220 kts | 69° |
| 2026-05-03 22:53 | 5.70331 | -0.41565 | 5961 ft | 215 kts | 69° |
| 2026-05-03 22:53 | 5.70895 | -0.40200 | 5842 ft | 209 kts | 69° |
| 2026-05-03 22:53 | 5.71445 | -0.38870 | 5731 ft | 203 kts | 69° |
| 2026-05-03 22:53 | 5.71979 | -0.37577 | 5634 ft | 196 kts | 69° |
| 2026-05-03 22:54 | 5.72494 | -0.36329 | 5533 ft | 189 kts | 70° |
| 2026-05-03 22:54 | 5.72991 | -0.35125 | 5421 ft | 184 kts | 70° |
| 2026-05-03 22:54 | 5.73479 | -0.33942 | 5256 ft | 182 kts | 70° |
| 2026-05-03 22:54 | 5.73965 | -0.32763 | 5067 ft | 183 kts | 70° |
| 2026-05-03 22:55 | 5.74454 | -0.31576 | 4870 ft | 183 kts | 70° |
| 2026-05-03 22:55 | 5.74945 | -0.30384 | 4661 ft | 184 kts | 70° |
| 2026-05-03 22:55 | 5.75437 | -0.29189 | 4453 ft | 185 kts | 70° |
| 2026-05-03 22:55 | 5.75935 | -0.27984 | 4265 ft | 184 kts | 70° |
| 2026-05-03 22:56 | 5.76422 | -0.26807 | 4260 ft | 184 kts | 70° |
| 2026-05-03 22:56 | 5.76909 | -0.25621 | 4267 ft | 185 kts | 70° |
| 2026-05-03 22:56 | 5.77402 | -0.24427 | 4255 ft | 185 kts | 70° |
| 2026-05-03 22:56 | 5.77895 | -0.23227 | 4239 ft | 185 kts | 70° |
| 2026-05-03 22:57 | 5.78393 | -0.22020 | 4214 ft | 185 kts | 70° |
| 2026-05-03 22:57 | 5.78885 | -0.20825 | 4190 ft | 186 kts | 70° |
| 2026-05-03 22:57 | 5.79383 | -0.19618 | 4158 ft | 185 kts | 70° |
| 2026-05-03 22:57 | 5.79881 | -0.18407 | 4126 ft | 185 kts | 72° |
| 2026-05-03 22:58 | 5.80038 | -0.17167 | 4018 ft | 181 kts | 105° |
| 2026-05-03 22:58 | 5.79629 | -0.15954 | 3753 ft | 183 kts | 112° |
| 2026-05-03 22:58 | 5.79159 | -0.14737 | 3371 ft | 192 kts | 113° |
| 2026-05-03 22:58 | 5.78660 | -0.13438 | 2931 ft | 202 kts | 113° |
| 2026-05-03 22:59 | 5.78155 | -0.12100 | 2554 ft | 208 kts | 113° |
| 2026-05-03 22:59 | 5.77596 | -0.10770 | 2234 ft | 202 kts | 127° |
| 2026-05-03 22:59 | 5.76504 | -0.10041 | 1998 ft | 184 kts | 175° |
| 2026-05-03 22:59 | 5.75345 | -0.10328 | 1991 ft | 162 kts | 205° |
| 2026-05-03 23:00 | 5.74350 | -0.10839 | 1996 ft | 159 kts | 206° |
| 2026-05-03 23:00 | 5.73381 | -0.11323 | 1982 ft | 146 kts | 205° |
| 2026-05-03 23:00 | 5.72486 | -0.11742 | 1978 ft | 141 kts | 203° |
| 2026-05-03 23:00 | 5.71573 | -0.12147 | 1989 ft | 141 kts | 202° |
| 2026-05-03 23:01 | 5.70662 | -0.12543 | 1995 ft | 141 kts | 202° |
| 2026-05-03 23:01 | 5.69750 | -0.12928 | 1864 ft | 141 kts | 202° |
| 2026-05-03 23:01 | 5.68838 | -0.13305 | 1683 ft | 141 kts | 202° |
| 2026-05-03 23:01 | 5.67929 | -0.13677 | 1504 ft | 140 kts | 202° |
| 2026-05-03 23:02 | 5.67018 | -0.14050 | 1323 ft | 140 kts | 202° |
| 2026-05-03 23:02 | 5.66112 | -0.14422 | 1145 ft | 139 kts | 202° |
| 2026-05-03 23:02 | 5.65209 | -0.14793 | 968 ft | 139 kts | 202° |
| 2026-05-03 23:02 | 5.64317 | -0.15159 | 793 ft | 139 kts | 202° |
| 2026-05-03 23:03 | 5.63413 | -0.15531 | 613 ft | 139 kts | 202° |
| 2026-05-03 23:03 | 5.62508 | -0.15890 | 437 ft | 140 kts | 203° |
| 2026-05-03 23:03 | 5.61598 | -0.16254 | 269 ft | 139 kts | 207° |
| 2026-05-03 23:03 | 5.60746 | -0.16623 | 251 ft | 127 kts | 205° |
| 2026-05-03 23:04 | 5.60060 | -0.16913 | 214 ft | 56 kts | 203° |
| 2026-05-03 23:04 | 5.59909 | -0.17011 | 214 ft | 17 kts | 230° |
| 2026-05-03 23:04 | 5.59848 | -0.17092 | 219 ft | 7 kts | 235° |
| 2026-05-03 23:04 | 5.59829 | -0.17123 | 221 ft | 3 kts | 247° |
| 2026-05-03 23:05 | 5.59826 | -0.17141 | 222 ft | 1 kts | 268° |
| 2026-05-03 23:05 | 5.59832 | -0.17170 | 224 ft | 7 kts | 295° |
| 2026-05-03 23:05 | 5.59901 | -0.17190 | 224 ft | 17 kts | 21° |
| 2026-05-03 23:05 | 5.60032 | -0.17132 | 220 ft | 21 kts | 22° |
| 2026-05-03 23:06 | 5.60126 | -0.17130 | 221 ft | 5 kts | 313° |
| 2026-05-03 23:06 | 5.60149 | -0.17161 | 222 ft | 5 kts | 300° |
| 2026-05-03 23:06 | 5.60159 | -0.17182 | 222 ft | 0 kts | 294° |
| 2026-05-03 23:06 | 5.60160 | -0.17183 | 222 ft | 0 kts | 296° |
| 2026-05-03 23:07 | 5.60161 | -0.17186 | 222 ft | 0 kts | 299° |
| 2026-05-03 23:07 | 5.60164 | -0.17190 | 223 ft | 0 kts | 298° |
| 2026-05-03 23:07 | 5.60165 | -0.17191 | 223 ft | 0 kts | 297° |